Time;durP1;ratioP1;P1;durP2;ratioP2;P2;SDS_P1;SDS_P2;PMS_P1;PMS_P2;Temp;Humidity;BMP_temperature;BMP_pressure;BME280_temperature;BME280_humidity;BME280_pressure;Samples;Min_cycle;Max_cycle;Signal;HPM_P1;HPM_P2
2023/04/29 00:00:20;;;;;;;9.57;6.30;;;18.90;99.90;;;;;;5095057;28;20549;-74
2023/04/29 00:02:51;;;;;;;11.68;6.15;;;18.90;99.90;;;;;;5093472;28;20228;-74
2023/04/29 00:05:22;;;;;;;10.10;6.60;;;18.90;99.90;;;;;;5091906;28;20200;-74
2023/04/29 00:07:53;;;;;;;9.77;6.18;;;18.90;99.90;;;;;;5075051;28;20194;-74
2023/04/29 00:10:24;;;;;;;10.95;6.35;;;18.90;99.90;;;;;;5073999;28;20199;-74
2023/04/29 00:12:55;;;;;;;9.63;6.32;;;18.90;99.90;;;;;;5074427;28;20217;-74
2023/04/29 00:15:31;;;;;;;9.02;6.30;;;18.90;99.90;;;;;;5079792;28;20213;-74
2023/04/29 00:18:02;;;;;;;8.18;5.93;;;18.80;99.90;;;;;;5081173;28;20258;-74
2023/04/29 00:20:33;;;;;;;10.82;6.50;;;18.80;99.90;;;;;;5088001;28;20208;-74
2023/04/29 00:23:04;;;;;;;10.63;5.80;;;18.80;99.90;;;;;;5096680;28;20207;-74
2023/04/29 00:25:37;;;;;;;8.05;5.85;;;18.70;99.90;;;;;;5094391;28;20184;-74
2023/04/29 00:28:09;;;;;;;9.65;6.13;;;18.70;99.90;;;;;;5094563;28;20188;-73
2023/04/29 00:30:42;;;;;;;9.93;5.20;;;18.60;99.90;;;;;;5094605;28;20188;-73
2023/04/29 00:33:13;;;;;;;9.65;5.43;;;18.60;99.90;;;;;;5087290;28;20220;-73
2023/04/29 00:35:44;;;;;;;9.77;6.28;;;18.60;99.90;;;;;;5091168;28;20211;-74
2023/04/29 00:38:15;;;;;;;11.02;5.75;;;18.60;99.90;;;;;;5079901;28;20223;-73
2023/04/29 00:40:46;;;;;;;8.48;6.13;;;18.50;99.90;;;;;;5094334;28;20237;-74
2023/04/29 00:43:17;;;;;;;9.73;6.07;;;18.50;99.90;;;;;;5094338;28;20199;-74
2023/04/29 00:45:50;;;;;;;9.00;6.03;;;18.50;99.90;;;;;;5094279;28;20188;-73
2023/04/29 00:48:21;;;;;;;9.68;6.20;;;18.60;99.90;;;;;;5085711;28;20582;-74
2023/04/29 00:50:53;;;;;;;12.90;6.80;;;18.60;99.90;;;;;;5094488;28;20524;-73
2023/04/29 00:53:27;;;;;;;10.85;6.40;;;18.60;99.90;;;;;;5092995;28;20235;-74
2023/04/29 00:55:59;;;;;;;8.40;5.47;;;18.60;99.90;;;;;;5085701;28;20199;-73
2023/04/29 00:58:32;;;;;;;9.20;5.85;;;18.60;99.90;;;;;;5080317;28;20212;-73
2023/04/29 01:01:06;;;;;;;9.57;5.97;;;18.60;99.90;;;;;;5093761;28;20210;-74
2023/04/29 01:03:37;;;;;;;11.93;6.20;;;18.60;99.90;;;;;;5091018;28;20204;-74
2023/04/29 01:06:19;;;;;;;10.32;6.20;;;18.60;99.90;;;;;;5087722;28;20227;-74
2023/04/29 01:09:02;;;;;;;11.07;5.90;;;18.60;99.90;;;;;;5091373;28;20226;-74
2023/04/29 01:11:37;;;;;;;10.77;6.25;;;18.60;99.90;;;;;;5079488;28;20235;-73
2023/04/29 01:14:09;;;;;;;10.27;6.10;;;18.60;99.90;;;;;;5090762;28;20216;-74
2023/04/29 01:16:49;;;;;;;9.00;5.50;;;18.60;99.90;;;;;;5093260;28;20279;-73
2023/04/29 01:19:45;;;;;;;9.50;6.05;;;18.60;99.90;;;;;;5090128;28;20197;-74
2023/04/29 01:22:17;;;;;;;8.82;4.97;;;18.70;99.90;;;;;;5089277;28;20670;-74
2023/04/29 01:24:50;;;;;;;7.97;5.10;;;18.70;99.90;;;;;;5089767;28;20204;-74
2023/04/29 01:27:30;;;;;;;8.57;4.88;;;18.70;99.90;;;;;;5092975;28;20196;-74
2023/04/29 01:30:08;;;;;;;7.15;4.65;;;18.70;99.90;;;;;;5084796;28;20261;-74
2023/04/29 01:32:49;;;;;;;7.70;4.18;;;18.70;99.90;;;;;;5089782;28;20220;-74
2023/04/29 01:35:31;;;;;;;5.65;4.30;;;18.70;99.90;;;;;;5092622;28;20219;-73
2023/04/29 01:38:10;;;;;;;7.18;4.55;;;18.60;99.90;;;;;;5092810;28;20195;-73
2023/04/29 01:40:55;;;;;;;7.40;4.90;;;18.60;99.90;;;;;;5089929;28;20197;-73
2023/04/29 01:43:30;;;;;;;5.75;4.35;;;18.60;99.90;;;;;;5073212;28;20196;-74
2023/04/29 01:46:03;;;;;;;7.47;4.70;;;18.60;99.90;;;;;;5078045;28;20215;-74
2023/04/29 01:48:34;;;;;;;6.78;4.80;;;18.60;99.90;;;;;;5075016;28;20620;-73
2023/04/29 01:51:06;;;;;;;8.10;4.68;;;18.60;99.90;;;;;;5072920;28;20200;-73
2023/04/29 01:53:39;;;;;;;6.63;4.32;;;18.60;99.90;;;;;;5079465;28;20212;-74
2023/04/29 01:56:12;;;;;;;8.05;4.20;;;18.60;99.90;;;;;;5109609;28;20230;-73
2023/04/29 01:58:43;;;;;;;10.20;4.25;;;18.50;99.90;;;;;;5086016;28;20200;-74
2023/04/29 02:01:14;;;;;;;7.40;3.40;;;18.60;99.90;;;;;;5090964;28;20219;-74
2023/04/29 02:03:45;;;;;;;5.97;3.10;;;18.50;99.90;;;;;;5092108;28;20663;-74
2023/04/29 02:06:16;;;;;;;6.75;2.88;;;18.40;99.90;;;;;;5089307;28;20845;-74
2023/04/29 02:08:47;;;;;;;6.13;3.40;;;18.40;99.90;;;;;;5081917;28;20720;-74
2023/04/29 02:11:20;;;;;;;7.07;3.92;;;18.40;99.90;;;;;;5081632;28;20219;-74
2023/04/29 02:13:51;;;;;;;5.82;3.30;;;18.40;99.90;;;;;;5085163;28;20589;-74
2023/04/29 02:16:23;;;;;;;7.22;3.28;;;18.40;99.90;;;;;;5092272;28;20196;-74
2023/04/29 02:18:54;;;;;;;5.50;3.30;;;18.30;99.90;;;;;;5091050;28;20278;-74
2023/04/29 02:21:28;;;;;;;5.93;3.10;;;18.30;99.90;;;;;;5092771;28;20200;-74
2023/04/29 02:23:59;;;;;;;6.38;3.03;;;18.40;99.90;;;;;;5092975;28;20189;-74
2023/04/29 02:26:36;;;;;;;5.75;3.08;;;18.40;99.90;;;;;;5095194;28;20196;-74
2023/04/29 02:29:07;;;;;;;7.55;3.13;;;18.50;99.90;;;;;;5093860;28;20207;-74
2023/04/29 02:31:39;;;;;;;6.13;3.08;;;18.40;99.90;;;;;;5076496;28;20189;-73
2023/04/29 02:34:10;;;;;;;6.70;3.10;;;18.40;99.90;;;;;;5076958;28;20221;-73
2023/04/29 02:36:44;;;;;;;4.10;2.88;;;18.40;99.90;;;;;;5076410;28;20530;-73
2023/04/29 02:39:19;;;;;;;5.97;2.90;;;18.40;99.90;;;;;;5076341;28;20193;-73
2023/04/29 02:41:55;;;;;;;4.95;2.90;;;18.40;99.90;;;;;;5094705;28;20194;-73
2023/04/29 02:44:27;;;;;;;5.05;2.90;;;18.30;99.90;;;;;;5083277;28;20662;-73
2023/04/29 02:46:58;;;;;;;7.05;3.42;;;18.30;99.90;;;;;;5113366;28;20196;-73
2023/04/29 02:49:29;;;;;;;7.57;3.40;;;18.30;99.90;;;;;;5098654;28;20202;-73
2023/04/29 02:52:02;;;;;;;4.38;3.00;;;18.30;99.90;;;;;;5093776;28;20188;-73
2023/04/29 02:54:33;;;;;;;6.35;2.80;;;18.40;99.90;;;;;;5103779;28;20238;-73
2023/04/29 02:57:06;;;;;;;3.72;2.42;;;18.40;99.90;;;;;;5101469;28;20671;-73
2023/04/29 02:59:38;;;;;;;5.82;2.70;;;18.30;99.90;;;;;;5089503;28;20208;-73
2023/04/29 03:02:09;;;;;;;6.28;2.63;;;18.40;99.90;;;;;;5076974;28;20278;-73
2023/04/29 03:04:43;;;;;;;5.50;2.78;;;18.30;99.90;;;;;;5075774;28;20215;-73
2023/04/29 03:07:15;;;;;;;3.85;2.20;;;18.30;99.90;;;;;;5080353;28;20203;-74
2023/04/29 03:09:46;;;;;;;6.75;2.72;;;18.30;99.90;;;;;;5075997;28;20288;-73
2023/04/29 03:12:19;;;;;;;4.13;2.58;;;18.30;99.90;;;;;;5077671;28;20204;-73
2023/04/29 03:14:52;;;;;;;5.45;2.45;;;18.30;99.90;;;;;;5075762;28;20220;-73
2023/04/29 03:17:24;;;;;;;4.63;2.50;;;18.30;99.90;;;;;;5076473;28;20200;-74
2023/04/29 03:19:55;;;;;;;4.35;2.60;;;18.30;99.90;;;;;;5095994;28;20556;-73
2023/04/29 03:22:26;;;;;;;5.63;3.30;;;18.30;99.90;;;;;;5096104;28;20192;-73
2023/04/29 03:24:58;;;;;;;7.00;2.58;;;18.30;99.90;;;;;;5095731;28;20196;-73
2023/04/29 03:27:30;;;;;;;4.35;2.63;;;18.30;99.90;;;;;;5092130;28;20197;-73
2023/04/29 03:30:02;;;;;;;6.10;2.60;;;18.30;99.90;;;;;;5080566;28;20193;-73
2023/04/29 03:32:33;;;;;;;7.57;2.78;;;18.30;99.90;;;;;;5084594;28;20206;-73
2023/04/29 03:35:04;;;;;;;4.70;2.30;;;18.30;99.90;;;;;;5095382;28;20579;-73
2023/04/29 03:37:36;;;;;;;3.78;2.13;;;18.30;99.90;;;;;;5094362;28;20220;-73
2023/04/29 03:40:08;;;;;;;5.25;2.20;;;18.30;99.90;;;;;;5082933;28;20204;-73
2023/04/29 03:42:41;;;;;;;3.95;2.05;;;18.30;99.90;;;;;;5081693;28;20576;-73
2023/04/29 03:45:13;;;;;;;4.70;2.08;;;18.20;99.90;;;;;;5082557;28;20220;-73
2023/04/29 03:47:44;;;;;;;4.32;2.30;;;18.20;99.90;;;;;;5090940;28;20656;-73
2023/04/29 03:50:15;;;;;;;3.38;2.20;;;18.30;99.90;;;;;;5090418;28;20203;-73
2023/04/29 03:52:46;;;;;;;5.05;2.53;;;18.30;99.90;;;;;;5101821;28;20195;-73
2023/04/29 03:55:17;;;;;;;4.30;2.63;;;18.30;99.90;;;;;;5115571;28;20196;-73
2023/04/29 03:57:50;;;;;;;5.97;2.80;;;18.30;99.90;;;;;;5115657;28;20196;-73
2023/04/29 04:00:22;;;;;;;4.88;2.83;;;18.30;99.90;;;;;;5108440;27;20199;-74
2023/04/29 04:02:55;;;;;;;3.67;2.70;;;18.30;99.90;;;;;;5086515;28;20228;-73
2023/04/29 04:05:26;;;;;;;4.22;2.70;;;18.30;99.90;;;;;;5087693;28;20670;-73
2023/04/29 04:07:59;;;;;;;4.47;2.60;;;18.30;99.90;;;;;;5084419;28;20250;-73
2023/04/29 04:10:30;;;;;;;5.28;2.97;;;18.30;99.90;;;;;;5088546;28;20208;-74
2023/04/29 04:13:03;;;;;;;4.47;2.95;;;18.40;99.90;;;;;;5094841;28;20199;-73
2023/04/29 04:15:34;;;;;;;5.90;3.35;;;18.30;99.90;;;;;;5074457;28;20193;-73
2023/04/29 04:18:06;;;;;;;5.93;3.28;;;18.40;99.90;;;;;;5074525;28;20197;-73
2023/04/29 04:20:39;;;;;;;4.53;3.42;;;18.40;99.90;;;;;;5088530;28;20607;-73
2023/04/29 04:23:10;;;;;;;7.05;3.90;;;18.40;99.90;;;;;;5094614;28;20189;-73
2023/04/29 04:25:47;;;;;;;6.32;4.00;;;18.40;99.90;;;;;;5085522;28;20223;-74
2023/04/29 04:28:21;;;;;;;7.43;4.25;;;18.30;99.90;;;;;;5089669;28;20659;-73
2023/04/29 04:30:52;;;;;;;6.38;4.30;;;18.30;99.90;;;;;;5090235;28;20646;-73
2023/04/29 04:33:24;;;;;;;5.72;4.00;;;18.30;99.90;;;;;;5094149;28;20212;-73
2023/04/29 04:35:55;;;;;;;5.78;3.60;;;18.30;99.90;;;;;;5074300;28;20193;-73
2023/04/29 04:38:26;;;;;;;7.63;4.32;;;18.30;99.90;;;;;;5093722;28;20196;-73
2023/04/29 04:40:57;;;;;;;6.10;4.28;;;18.30;99.90;;;;;;5093166;28;20192;-74
2023/04/29 04:43:30;;;;;;;5.88;4.53;;;18.30;99.90;;;;;;5080498;28;20190;-74
2023/04/29 04:46:02;;;;;;;6.85;4.90;;;18.30;99.90;;;;;;5073582;28;20641;-73
2023/04/29 04:48:34;;;;;;;7.25;4.70;;;18.30;99.90;;;;;;5074395;28;20251;-74
2023/04/29 04:51:11;;;;;;;8.30;5.32;;;18.30;99.90;;;;;;5084046;28;20578;-73
2023/04/29 04:53:42;;;;;;;5.78;4.72;;;18.30;99.90;;;;;;5085944;28;20250;-74
2023/04/29 04:56:13;;;;;;;7.45;4.70;;;18.30;99.90;;;;;;5090760;28;20203;-73
2023/04/29 04:58:47;;;;;;;5.95;4.13;;;18.40;99.90;;;;;;5090688;28;20203;-73
2023/04/29 05:01:18;;;;;;;5.82;4.22;;;18.40;99.90;;;;;;5075919;28;20313;-73
2023/04/29 05:03:49;;;;;;;6.82;3.83;;;18.40;99.90;;;;;;5073729;28;20192;-73
2023/04/29 05:06:20;;;;;;;6.28;4.32;;;18.40;99.90;;;;;;5095265;28;20207;-73
2023/04/29 05:08:51;;;;;;;8.13;4.00;;;18.40;99.90;;;;;;5084163;28;20299;-73
2023/04/29 05:11:23;;;;;;;7.35;4.20;;;18.40;99.90;;;;;;5090623;28;20558;-73
2023/04/29 05:13:56;;;;;;;8.57;3.88;;;18.40;99.90;;;;;;5090224;28;20212;-74
2023/04/29 05:16:27;;;;;;;6.13;3.80;;;18.30;99.90;;;;;;5093775;28;20192;-73
2023/04/29 05:18:58;;;;;;;4.75;3.78;;;18.30;99.90;;;;;;5093117;28;20192;-73
2023/04/29 05:21:29;;;;;;;5.07;3.38;;;18.30;99.90;;;;;;5093817;28;20199;-73
2023/04/29 05:24:00;;;;;;;6.47;3.33;;;18.30;99.90;;;;;;5093200;28;20200;-74
2023/04/29 05:26:31;;;;;;;4.57;3.25;;;18.30;99.90;;;;;;5077273;28;20207;-73
2023/04/29 05:29:04;;;;;;;6.47;3.50;;;18.30;99.90;;;;;;5088013;28;20199;-74
2023/04/29 05:31:35;;;;;;;4.28;3.30;;;18.30;99.90;;;;;;5093563;28;20199;-73
2023/04/29 05:34:06;;;;;;;5.40;3.40;;;18.30;99.90;;;;;;5093496;28;20224;-73
2023/04/29 05:36:37;;;;;;;4.68;3.10;;;18.30;99.90;;;;;;5092595;28;20670;-73
2023/04/29 05:39:08;;;;;;;6.97;3.65;;;18.30;99.90;;;;;;5093004;28;20189;-73
2023/04/29 05:41:39;;;;;;;5.45;3.67;;;18.30;99.90;;;;;;5080344;28;20200;-73
2023/04/29 05:44:12;;;;;;;7.80;4.57;;;18.40;99.90;;;;;;5075454;28;20192;-73
2023/04/29 05:46:43;;;;;;;7.55;4.25;;;18.40;99.90;;;;;;5091043;28;20196;-73
2023/04/29 05:49:14;;;;;;;6.47;4.28;;;18.30;99.90;;;;;;5092248;28;20195;-73
2023/04/29 05:51:45;;;;;;;6.28;3.80;;;18.30;99.90;;;;;;5073518;28;20189;-73
2023/04/29 05:54:17;;;;;;;6.47;4.40;;;18.40;99.90;;;;;;5083746;28;20219;-73
2023/04/29 05:56:48;;;;;;;5.57;4.10;;;18.40;99.90;;;;;;5093814;28;20215;-74
2023/04/29 05:59:21;;;;;;;6.05;4.20;;;18.30;99.90;;;;;;5094300;28;20185;-73
2023/04/29 06:01:52;;;;;;;5.75;4.53;;;18.30;99.90;;;;;;5105137;28;20242;-73
2023/04/29 06:04:23;;;;;;;7.45;4.05;;;18.30;99.90;;;;;;5091308;28;20219;-73
2023/04/29 06:06:55;;;;;;;6.00;4.30;;;18.30;99.90;;;;;;5094334;28;20203;-73
2023/04/29 06:09:26;;;;;;;5.38;4.18;;;18.20;99.90;;;;;;5097347;28;20716;-74
2023/04/29 06:11:57;;;;;;;7.40;4.18;;;18.20;99.90;;;;;;5096396;28;20196;-74
2023/04/29 06:14:30;;;;;;;5.53;4.20;;;18.20;99.90;;;;;;5098824;28;20216;-73
2023/04/29 06:17:02;;;;;;;6.30;3.70;;;18.20;99.90;;;;;;5084629;28;20200;-73
2023/04/29 06:19:33;;;;;;;5.78;3.97;;;18.20;99.90;;;;;;5079927;28;20248;-74
2023/04/29 06:22:04;;;;;;;7.28;3.85;;;18.30;99.90;;;;;;5094950;28;20211;-74
2023/04/29 06:24:35;;;;;;;5.10;3.38;;;18.30;99.90;;;;;;5085420;28;20191;-73
2023/04/29 06:27:06;;;;;;;4.35;3.50;;;18.20;99.90;;;;;;5085662;28;20197;-73
2023/04/29 06:29:39;;;;;;;4.82;3.78;;;18.30;99.90;;;;;;5080786;28;20573;-73
2023/04/29 06:32:12;;;;;;;4.65;3.60;;;18.30;99.90;;;;;;5085666;28;20203;-73
2023/04/29 06:34:44;;;;;;;6.45;3.40;;;18.20;99.90;;;;;;5076484;28;20582;-73
2023/04/29 06:37:15;;;;;;;6.32;3.60;;;18.20;99.90;;;;;;5076759;28;20633;-74
2023/04/29 06:39:46;;;;;;;5.07;3.40;;;18.20;99.90;;;;;;5076841;28;20193;-73
2023/04/29 06:42:17;;;;;;;8.13;3.53;;;18.30;99.90;;;;;;5090011;28;20193;-73
2023/04/29 06:44:50;;;;;;;5.03;3.00;;;18.30;99.90;;;;;;5089408;28;20226;-73
2023/04/29 06:47:21;;;;;;;4.72;3.42;;;18.20;99.90;;;;;;5082585;28;20554;-73
2023/04/29 06:49:53;;;;;;;5.20;2.80;;;18.20;99.90;;;;;;5076213;28;20683;-72
2023/04/29 06:52:24;;;;;;;5.57;3.35;;;18.20;99.90;;;;;;5076401;28;20201;-73
2023/04/29 06:54:55;;;;;;;4.15;3.10;;;18.20;99.90;;;;;;5083300;28;20561;-73
2023/04/29 06:57:26;;;;;;;6.20;3.20;;;18.20;99.90;;;;;;5089258;28;20929;-74
2023/04/29 06:59:59;;;;;;;5.93;3.35;;;18.20;99.90;;;;;;5091761;28;20246;-73
2023/04/29 07:02:31;;;;;;;4.38;3.72;;;18.20;99.90;;;;;;5079942;28;20285;-73
2023/04/29 07:05:02;;;;;;;5.30;3.63;;;18.20;99.90;;;;;;5084167;28;20184;-73
2023/04/29 07:07:33;;;;;;;7.07;3.70;;;18.20;99.90;;;;;;5091588;28;20224;-72
2023/04/29 07:10:04;;;;;;;5.18;3.60;;;18.10;99.90;;;;;;5082741;28;20553;-73
2023/04/29 07:12:36;;;;;;;5.70;3.30;;;18.10;99.90;;;;;;5079778;28;20197;-73
2023/04/29 07:15:09;;;;;;;4.88;3.38;;;18.10;99.90;;;;;;5083472;28;20230;-74
2023/04/29 07:17:40;;;;;;;3.80;3.30;;;18.10;99.90;;;;;;5085598;28;20204;-72
2023/04/29 07:20:12;;;;;;;4.72;3.03;;;18.10;99.90;;;;;;5107547;28;20203;-72
2023/04/29 07:22:43;;;;;;;4.82;3.15;;;18.00;99.90;;;;;;5091501;28;20197;-72
2023/04/29 07:25:15;;;;;;;5.85;2.90;;;18.10;99.90;;;;;;5076974;28;20197;-72
2023/04/29 07:27:46;;;;;;;3.90;2.88;;;18.10;99.90;;;;;;5081118;28;20203;-73
2023/04/29 07:30:19;;;;;;;4.15;3.08;;;18.10;99.90;;;;;;5083117;28;20192;-72
2023/04/29 07:32:50;;;;;;;4.20;3.03;;;18.10;99.90;;;;;;5094182;28;20188;-73
2023/04/29 07:35:21;;;;;;;5.75;3.33;;;18.10;99.90;;;;;;5076590;28;20224;-72
2023/04/29 07:37:52;;;;;;;6.75;3.30;;;18.00;99.90;;;;;;5083308;28;20201;-72
2023/04/29 07:40:24;;;;;;;4.40;3.13;;;18.00;99.90;;;;;;5075449;28;20193;-72
2023/04/29 07:42:55;;;;;;;4.40;3.17;;;18.00;99.90;;;;;;5075367;28;20196;-72
2023/04/29 07:45:28;;;;;;;6.28;3.50;;;17.90;99.90;;;;;;5082555;28;20193;-73
2023/04/29 07:47:59;;;;;;;6.70;3.92;;;17.90;99.90;;;;;;5084993;28;20208;-73
2023/04/29 07:50:30;;;;;;;5.97;3.97;;;17.90;99.90;;;;;;5075066;28;20310;-72
2023/04/29 07:53:01;;;;;;;8.13;4.40;;;17.90;99.90;;;;;;5074543;28;20193;-74
2023/04/29 07:55:33;;;;;;;6.28;4.78;;;17.90;99.90;;;;;;5081705;28;20237;-72
2023/04/29 07:58:04;;;;;;;6.85;4.40;;;17.90;99.90;;;;;;5084803;28;20204;-72
2023/04/29 08:00:37;;;;;;;8.00;5.20;;;17.80;99.90;;;;;;5095041;28;20196;-71
2023/04/29 08:03:08;;;;;;;7.45;4.93;;;17.80;99.90;;;;;;5093277;28;20255;-72
2023/04/29 08:05:39;;;;;;;7.07;5.05;;;17.80;99.90;;;;;;5089166;28;20227;-72
2023/04/29 08:08:10;;;;;;;9.10;5.13;;;17.80;99.90;;;;;;5097579;28;20216;-72
2023/04/29 08:10:42;;;;;;;5.65;4.05;;;17.80;99.90;;;;;;5080863;28;20219;-72
2023/04/29 08:13:14;;;;;;;5.25;3.05;;;17.80;99.90;;;;;;5080054;28;20196;-73
2023/04/29 08:15:47;;;;;;;4.25;2.55;;;17.80;99.90;;;;;;5091723;28;20220;-72
2023/04/29 08:18:18;;;;;;;5.05;1.90;;;17.80;99.90;;;;;;5094305;28;20192;-71
2023/04/29 08:20:50;;;;;;;6.57;1.83;;;17.80;99.90;;;;;;5095096;28;20192;-72
2023/04/29 08:23:21;;;;;;;2.78;1.40;;;17.80;99.90;;;;;;5083817;28;20197;-72
2023/04/29 08:25:54;;;;;;;4.43;1.10;;;17.80;99.90;;;;;;5083982;28;20196;-72
2023/04/29 08:28:26;;;;;;;6.18;1.40;;;17.80;99.90;;;;;;5078623;28;20195;-71
2023/04/29 08:30:59;;;;;;;6.82;1.40;;;17.80;99.90;;;;;;5086549;28;20297;-72
2023/04/29 08:33:30;;;;;;;5.63;1.35;;;17.80;99.90;;;;;;5083062;28;20560;-72
2023/04/29 08:36:04;;;;;;;4.28;1.30;;;17.80;99.90;;;;;;5080051;28;20244;-73
2023/04/29 08:38:35;;;;;;;5.47;1.33;;;17.80;99.90;;;;;;5082354;28;20651;-73
2023/04/29 08:41:09;;;;;;;5.80;1.40;;;17.80;99.90;;;;;;5088623;28;20251;-74
2023/04/29 08:43:41;;;;;;;5.22;1.33;;;17.70;99.90;;;;;;5074085;28;20247;-71
2023/04/29 08:46:15;;;;;;;6.25;1.30;;;17.80;99.90;;;;;;5087920;28;20245;-72
2023/04/29 08:48:46;;;;;;;7.05;1.20;;;17.80;99.90;;;;;;5090902;28;20203;-74
2023/04/29 08:51:17;;;;;;;6.47;1.50;;;17.80;99.90;;;;;;5082209;28;20192;-73
2023/04/29 08:53:48;;;;;;;6.22;1.30;;;17.80;99.90;;;;;;5082913;28;20205;-72
2023/04/29 08:56:21;;;;;;;6.15;1.40;;;17.70;99.90;;;;;;5083430;28;20221;-72
2023/04/29 08:58:56;;;;;;;6.57;1.25;;;17.80;99.90;;;;;;5095160;28;20626;-73
2023/04/29 09:01:31;;;;;;;7.65;1.27;;;17.80;99.90;;;;;;5078531;28;20707;-72
2023/04/29 09:04:11;;;;;;;8.50;1.15;;;17.80;99.90;;;;;;5092811;28;20188;-73
2023/04/29 09:06:42;;;;;;;8.55;1.40;;;17.80;99.90;;;;;;5090586;28;20211;-73
2023/04/29 09:09:14;;;;;;;7.10;1.10;;;17.80;99.90;;;;;;5091867;28;20216;-72
2023/04/29 09:11:45;;;;;;;6.53;1.33;;;17.80;99.90;;;;;;5079936;28;20201;-73
2023/04/29 09:14:16;;;;;;;6.35;1.13;;;17.80;99.90;;;;;;5085255;28;20193;-72
2023/04/29 09:16:52;;;;;;;6.72;1.20;;;17.80;99.90;;;;;;5088220;28;20235;-72
2023/04/29 09:19:35;;;;;;;6.55;1.13;;;17.80;99.90;;;;;;5093914;28;20196;-72
2023/04/29 09:22:07;;;;;;;9.60;1.42;;;17.80;99.90;;;;;;5087703;28;20605;-72
2023/04/29 09:24:38;;;;;;;6.78;1.48;;;17.80;99.90;;;;;;5093597;28;20630;-72
2023/04/29 09:27:10;;;;;;;5.65;1.13;;;17.80;99.90;;;;;;5084967;28;20200;-72
2023/04/29 09:29:50;;;;;;;5.80;1.08;;;17.80;99.90;;;;;;5092463;28;20196;-73
2023/04/29 09:32:26;;;;;;;5.15;1.27;;;17.80;99.90;;;;;;5092377;28;20536;-73
2023/04/29 09:34:57;;;;;;;4.85;1.20;;;17.80;99.90;;;;;;5091302;28;20675;-72
2023/04/29 09:37:29;;;;;;;8.90;1.70;;;17.80;99.90;;;;;;5088697;28;20560;-72
2023/04/29 09:40:00;;;;;;;6.57;1.20;;;17.70;99.90;;;;;;5093335;28;20200;-73
2023/04/29 09:42:32;;;;;;;6.88;1.20;;;17.80;99.90;;;;;;5093212;28;20206;-72
2023/04/29 09:45:03;;;;;;;4.45;1.30;;;17.80;99.90;;;;;;5084152;28;20204;-72
2023/04/29 09:47:36;;;;;;;8.20;1.30;;;17.80;99.90;;;;;;5093399;28;20188;-72
2023/04/29 09:50:15;;;;;;;4.43;1.30;;;17.80;99.90;;;;;;5084613;28;20204;-73
2023/04/29 09:52:46;;;;;;;8.10;1.45;;;17.80;99.90;;;;;;5092340;28;20208;-74
2023/04/29 09:55:17;;;;;;;12.25;1.70;;;17.80;99.90;;;;;;5092951;28;20222;-72
2023/04/29 09:57:49;;;;;;;5.78;1.10;;;17.80;99.90;;;;;;5079947;28;20219;-72
2023/04/29 10:00:20;;;;;;;3.80;1.10;;;17.80;99.90;;;;;;5086166;28;20196;-72
2023/04/29 10:02:57;;;;;;;5.65;1.25;;;17.70;99.90;;;;;;5087778;28;20243;-72
2023/04/29 10:05:31;;;;;;;5.00;1.23;;;17.70;99.90;;;;;;5081896;28;20200;-72
2023/04/29 10:08:03;;;;;;;5.68;1.30;;;17.70;99.90;;;;;;5092303;28;20285;-74
2023/04/29 10:10:34;;;;;;;3.35;1.10;;;17.70;99.90;;;;;;5082048;28;20209;-72
2023/04/29 10:13:06;;;;;;;4.50;0.90;;;17.70;99.90;;;;;;5103428;28;20204;-72
2023/04/29 10:15:41;;;;;;;5.80;1.00;;;17.70;99.90;;;;;;5086025;28;20605;-73
2023/04/29 10:18:20;;;;;;;4.25;1.00;;;17.70;99.90;;;;;;5076255;28;20219;-73
2023/04/29 10:20:52;;;;;;;2.95;0.88;;;17.70;99.90;;;;;;5092426;28;20195;-73
2023/04/29 10:23:24;;;;;;;2.15;0.73;;;17.70;99.90;;;;;;5076407;28;20199;-72
2023/04/29 10:25:59;;;;;;;2.08;0.77;;;17.60;99.90;;;;;;5085006;28;20260;-73
2023/04/29 10:28:32;;;;;;;2.97;0.93;;;17.60;99.90;;;;;;5086522;28;20559;-72
2023/04/29 10:31:06;;;;;;;2.33;0.95;;;17.60;99.90;;;;;;5086151;28;20192;-73
2023/04/29 10:33:42;;;;;;;5.18;1.25;;;17.60;99.90;;;;;;5089901;28;20196;-72
2023/04/29 10:36:13;;;;;;;2.97;0.88;;;17.60;99.90;;;;;;5090413;28;20599;-71
2023/04/29 10:38:46;;;;;;;5.88;1.10;;;17.60;99.90;;;;;;5083335;28;20196;-71
2023/04/29 10:41:24;;;;;;;3.58;1.00;;;17.60;99.90;;;;;;5087821;28;20193;-72
2023/04/29 10:43:56;;;;;;;4.70;1.15;;;17.50;99.90;;;;;;5092624;28;20196;-73
2023/04/29 10:46:27;;;;;;;4.32;1.00;;;17.50;99.90;;;;;;5087296;28;20203;-72
2023/04/29 10:49:05;;;;;;;3.13;1.00;;;17.50;99.90;;;;;;5091283;28;20211;-77
2023/04/29 10:51:37;;;;;;;3.25;0.73;;;17.40;99.90;;;;;;5099979;28;20230;-75
2023/04/29 10:54:11;;;;;;;3.25;0.90;;;17.40;99.90;;;;;;5095502;28;20575;-72
2023/04/29 10:56:44;;;;;;;2.50;0.80;;;17.40;99.90;;;;;;5090024;28;20236;-75
2023/04/29 10:59:16;;;;;;;3.28;1.00;;;17.40;99.90;;;;;;5083810;28;20192;-72
2023/04/29 11:01:51;;;;;;;2.65;0.90;;;17.40;99.90;;;;;;5096404;28;20294;-72
2023/04/29 11:04:25;;;;;;;2.92;0.93;;;17.40;99.90;;;;;;5093764;28;20202;-73
2023/04/29 11:06:57;;;;;;;3.78;0.98;;;17.40;99.90;;;;;;5087598;28;20213;-74
2023/04/29 11:09:29;;;;;;;3.10;0.80;;;17.30;99.90;;;;;;5094232;28;20276;-72
2023/04/29 11:12:02;;;;;;;2.30;0.90;;;17.30;99.90;;;;;;5089266;28;20215;-72
2023/04/29 11:14:37;;;;;;;4.15;1.02;;;17.30;99.90;;;;;;5095844;28;20203;-72
2023/04/29 11:17:12;;;;;;;1.88;1.00;;;17.30;99.90;;;;;;5088296;28;20216;-72
2023/04/29 11:19:47;;;;;;;1.75;0.70;;;17.30;99.90;;;;;;5088905;28;20222;-78
2023/04/29 11:22:31;;;;;;;2.28;0.80;;;17.30;99.90;;;;;;5093138;28;20227;-73
2023/04/29 11:25:03;;;;;;;4.68;1.05;;;17.30;99.90;;;;;;5087354;28;20656;-72
2023/04/29 11:27:34;;;;;;;3.28;1.05;;;17.30;99.90;;;;;;5085010;28;20212;-72
2023/04/29 11:30:07;;;;;;;2.75;0.75;;;17.40;99.90;;;;;;5094258;28;20559;-72
2023/04/29 11:32:40;;;;;;;4.68;0.90;;;17.30;99.90;;;;;;5095593;28;20192;-73
2023/04/29 11:35:16;;;;;;;3.95;0.95;;;17.30;99.90;;;;;;5080874;28;20189;-73
2023/04/29 11:37:48;;;;;;;3.08;0.70;;;17.30;99.90;;;;;;5077791;28;20196;-71
2023/04/29 11:40:20;;;;;;;2.97;0.90;;;17.30;99.90;;;;;;5092977;28;20575;-72
2023/04/29 11:42:51;;;;;;;3.28;1.02;;;17.30;99.90;;;;;;5093274;28;20196;-71
2023/04/29 11:45:22;;;;;;;4.97;1.00;;;17.30;99.90;;;;;;5081500;28;20544;-73
2023/04/29 11:47:53;;;;;;;4.00;1.30;;;17.30;99.90;;;;;;5088372;28;20196;-77
2023/04/29 11:50:26;;;;;;;2.70;1.10;;;17.30;99.90;;;;;;5092145;28;20203;-72
2023/04/29 11:53:00;;;;;;;2.67;1.20;;;17.30;99.90;;;;;;5081100;28;20201;-72
2023/04/29 11:55:31;;;;;;;3.85;1.20;;;17.30;99.90;;;;;;5086469;28;20204;-71
2023/04/29 11:58:02;;;;;;;2.83;1.10;;;17.30;99.90;;;;;;5088525;28;20196;-76
2023/04/29 12:00:34;;;;;;;2.28;1.13;;;17.20;99.90;;;;;;5091260;28;20197;-75
2023/04/29 12:03:10;;;;;;;2.92;1.20;;;17.30;99.90;;;;;;5094130;28;20341;-71
2023/04/29 12:05:47;;;;;;;4.43;1.30;;;17.20;99.90;;;;;;5088636;28;20250;-71
2023/04/29 12:08:21;;;;;;;2.25;1.00;;;17.20;99.90;;;;;;5087109;28;20200;-71
2023/04/29 12:10:53;;;;;;;3.58;1.40;;;17.20;99.90;;;;;;5080987;28;20196;-71
2023/04/29 12:13:27;;;;;;;2.90;1.33;;;17.20;99.90;;;;;;5088711;28;20189;-72
2023/04/29 12:15:59;;;;;;;5.03;1.30;;;17.20;99.90;;;;;;5076327;28;20235;-71
2023/04/29 12:18:32;;;;;;;2.28;1.20;;;17.20;99.90;;;;;;5082598;28;20200;-71
2023/04/29 12:21:05;;;;;;;2.15;1.30;;;17.20;99.90;;;;;;5090825;28;20196;-71
2023/04/29 12:23:39;;;;;;;3.05;1.40;;;17.20;99.90;;;;;;5088308;28;20207;-72
2023/04/29 12:26:10;;;;;;;4.97;1.52;;;17.20;99.90;;;;;;5096965;28;20195;-74
2023/04/29 12:28:43;;;;;;;2.13;1.55;;;17.20;99.90;;;;;;5091369;28;20204;-72
2023/04/29 12:31:16;;;;;;;3.22;2.20;;;17.20;99.90;;;;;;5079641;28;20199;-73
2023/04/29 12:33:47;;;;;;;5.10;2.50;;;17.20;99.90;;;;;;5074336;28;20193;-72
2023/04/29 12:36:24;;;;;;;2.75;2.10;;;17.00;99.90;;;;;;5088552;28;20223;-72
2023/04/29 12:38:55;;;;;;;4.53;2.05;;;16.90;99.90;;;;;;5074860;28;20196;-77
2023/04/29 12:41:41;;;;;;;8.73;1.70;;;16.80;99.90;;;;;;5085927;28;20675;-78
2023/04/29 12:44:12;;;;;;;4.18;1.70;;;16.80;99.90;;;;;;5093666;28;20195;-79
2023/04/29 12:46:43;;;;;;;4.78;1.65;;;16.80;99.90;;;;;;5094477;28;20184;-76
2023/04/29 12:49:14;;;;;;;2.40;1.17;;;16.70;99.90;;;;;;5094405;28;20188;-77
2023/04/29 12:51:47;;;;;;;3.53;1.02;;;16.60;99.90;;;;;;5094311;28;20208;-76
2023/04/29 12:54:18;;;;;;;2.35;0.70;;;16.40;99.90;;;;;;5094668;28;20207;-76
2023/04/29 12:56:50;;;;;;;2.15;0.50;;;16.20;99.90;;;;;;5082880;28;20228;-76
2023/04/29 12:59:21;;;;;;;2.40;0.68;;;16.00;99.90;;;;;;5073774;28;20201;-78
2023/04/29 13:01:52;;;;;;;1.98;0.65;;;15.90;99.90;;;;;;5076266;28;20225;-76
2023/04/29 13:04:23;;;;;;;1.05;0.60;;;15.90;99.90;;;;;;5098103;28;20187;-75
2023/04/29 13:06:59;;;;;;;2.35;0.60;;;15.80;99.90;;;;;;5114446;28;20195;-75
2023/04/29 13:09:30;;;;;;;1.38;0.50;;;15.70;99.90;;;;;;5114177;28;20199;-76
2023/04/29 13:12:01;;;;;;;0.85;0.60;;;15.70;99.90;;;;;;5087558;27;20211;-76